createdAt,value
2022-11-15T00:00:57.485Z,100595.28
2022-11-15T00:02:47.767Z,100582.94
2022-11-15T00:04:38.192Z,100581.13
2022-11-15T00:06:28.630Z,100578.44
2022-11-15T00:08:19.053Z,100582.78
2022-11-15T00:10:09.945Z,100577.47
2022-11-15T00:12:01.374Z,100579.06
2022-11-15T00:13:51.826Z,100583.47
2022-11-15T00:15:42.434Z,100572.78
2022-11-15T00:17:32.721Z,100578.81
2022-11-15T00:19:23.292Z,100577.13
2022-11-15T00:21:14.950Z,100572.72
2022-11-15T00:23:05.964Z,100587.63
2022-11-15T00:24:59.311Z,100592.84
2022-11-15T00:26:49.666Z,100590.16
2022-11-15T00:28:42.098Z,100591.91
2022-11-15T00:30:32.313Z,100578.81
2022-11-15T00:32:22.458Z,100575.28
2022-11-15T00:34:13.053Z,100583.09
2022-11-15T00:36:05.550Z,100579.56
2022-11-15T00:37:55.589Z,100579.56
2022-11-15T00:39:45.944Z,100578.66
2022-11-15T00:41:36.486Z,100576.88
2022-11-15T00:43:26.828Z,100583.78
2022-11-15T00:45:19.752Z,100579.22
2022-11-15T00:47:10.119Z,100579.19
2022-11-15T00:49:00.408Z,100569.50
2022-11-15T00:50:51.537Z,100569.50
2022-11-15T00:52:41.765Z,100573.91
2022-11-15T00:54:32.455Z,100575.56
2022-11-15T00:56:22.991Z,100566.69
2022-11-15T00:58:13.195Z,100574.47
2022-11-15T01:00:04.802Z,100572.69
2022-11-15T01:01:56.776Z,100571.84
2022-11-15T01:03:47.010Z,100575.28
2022-11-15T01:05:38.157Z,100569.84
2022-11-15T01:07:28.268Z,100566.47
2022-11-15T01:09:18.524Z,100575.22
2022-11-15T01:11:11.283Z,100558.47
2022-11-15T01:13:01.897Z,100562.75
2022-11-15T01:14:52.323Z,100555.72
2022-11-15T01:16:42.896Z,100564.47
2022-11-15T01:18:34.953Z,100557.50
2022-11-15T01:20:25.413Z,100558.28
2022-11-15T01:22:15.964Z,100553.94
2022-11-15T01:24:06.757Z,100552.03
2022-11-15T01:25:59.989Z,100552.84
2022-11-15T01:27:50.262Z,100545.72
2022-11-15T01:29:40.568Z,100553.56
2022-11-15T01:31:31.052Z,100561.53
2022-11-15T01:33:21.626Z,100566.91
2022-11-15T01:35:13.674Z,100561.59
2022-11-15T01:37:03.884Z,100557.97
2022-11-15T01:38:55.226Z,100557.00
2022-11-15T01:40:45.362Z,100543.84
2022-11-15T01:42:35.715Z,100554.38
2022-11-15T01:44:44.290Z,100550.06
2022-11-15T01:46:36.663Z,100551.00
2022-11-15T01:48:32.982Z,100548.25
2022-11-15T01:50:28.813Z,100540.25
2022-11-15T01:52:23.256Z,100536.75
2022-11-15T01:54:18.074Z,100547.16
2022-11-15T01:56:11.815Z,100538.34
2022-11-15T01:58:06.382Z,100539.94
2022-11-15T01:59:58.199Z,100537.19
2022-11-15T02:01:48.499Z,100528.38
2022-11-15T02:03:46.503Z,100522.00
2022-11-15T02:05:39.071Z,100517.53
2022-11-15T02:07:31.359Z,100528.94
2022-11-15T02:09:21.455Z,100517.53
2022-11-15T02:11:11.991Z,100516.63
2022-11-15T02:13:02.930Z,100511.28
2022-11-15T02:14:55.274Z,100512.16
2022-11-15T02:16:55.034Z,100519.13
2022-11-15T02:18:51.558Z,100519.91
2022-11-15T02:20:59.455Z,100511.09
2022-11-15T02:23:05.388Z,100514.47
2022-11-15T02:25:05.074Z,100501.28
2022-11-15T02:27:55.022Z,100503.81
2022-11-15T02:29:58.001Z,100502.03
2022-11-15T02:31:55.953Z,100507.19
2022-11-15T02:33:54.103Z,100497.44
2022-11-15T02:35:53.333Z,100495.59
2022-11-15T02:37:50.589Z,100498.97
2022-11-15T02:39:46.805Z,100498.72
2022-11-15T02:41:45.516Z,100505.66
2022-11-15T02:43:59.273Z,100503.88
2022-11-15T02:45:53.908Z,100502.88
2022-11-15T02:47:48.875Z,100496.69
2022-11-15T02:49:40.950Z,100501.16
2022-11-15T02:51:31.384Z,100500.19
2022-11-15T02:53:25.154Z,100489.56
2022-11-15T02:55:30.122Z,100493.91
2022-11-15T02:57:31.663Z,100498.25
2022-11-15T02:59:40.007Z,100492.06
2022-11-15T03:01:42.523Z,100492.81
2022-11-15T03:03:49.922Z,100504.16
2022-11-15T03:05:47.705Z,100508.44
2022-11-15T03:07:45.176Z,100502.97
2022-11-15T03:09:40.843Z,100502.97
2022-11-15T03:11:35.698Z,100495.91
2022-11-15T03:13:28.591Z,100492.34
2022-11-15T03:15:22.367Z,100501.06
2022-11-15T03:17:19.610Z,100500.03
2022-11-15T03:19:17.120Z,100485.94
2022-11-15T03:21:12.281Z,100484.00
2022-11-15T03:23:08.109Z,100487.44
2022-11-15T03:25:05.146Z,100482.94
2022-11-15T03:26:58.778Z,100481.09
2022-11-15T03:28:52.871Z,100483.66
2022-11-15T03:30:45.105Z,100470.38
2022-11-15T03:32:39.684Z,100472.94
2022-11-15T03:34:36.304Z,100476.38
2022-11-15T03:36:27.939Z,100471.16
2022-11-15T03:38:23.170Z,100464.97
2022-11-15T03:40:14.938Z,100461.41
2022-11-15T03:42:19.529Z,100462.25
2022-11-15T03:44:17.485Z,100462.34
2022-11-15T03:46:12.200Z,100461.41
2022-11-15T03:48:06.088Z,100468.38
2022-11-15T03:50:02.944Z,100472.75
2022-11-15T03:51:53.287Z,100472.66
2022-11-15T03:53:43.682Z,100466.53
2022-11-15T03:55:34.844Z,100469.13
2022-11-15T03:57:25.035Z,100468.25
2022-11-15T03:59:15.458Z,100468.31
2022-11-15T04:01:06.043Z,100456.00
2022-11-15T04:02:56.948Z,100454.22
2022-11-15T04:04:47.287Z,100456.84
2022-11-15T04:06:38.980Z,100459.50
2022-11-15T04:08:29.314Z,100451.47
2022-11-15T04:10:19.852Z,100452.25
2022-11-15T04:12:10.066Z,100454.97
2022-11-15T04:14:00.411Z,100455.75
2022-11-15T04:15:50.572Z,100455.66
2022-11-15T04:17:43.607Z,100455.56
2022-11-15T04:19:52.519Z,100465.25
2022-11-15T04:22:02.830Z,100453.78
2022-11-15T04:24:08.283Z,100458.13
2022-11-15T04:26:01.141Z,100451.94
2022-11-15T04:27:51.461Z,100454.56
2022-11-15T04:29:41.861Z,100455.50
2022-11-15T04:31:32.522Z,100450.16
2022-11-15T04:33:22.833Z,100448.31
2022-11-15T04:35:13.132Z,100443.03
2022-11-15T04:37:13.641Z,100448.31
2022-11-15T04:39:04.050Z,100446.44
2022-11-15T04:40:54.323Z,100449.88
2022-11-15T04:42:45.073Z,100444.59
2022-11-15T04:44:35.133Z,100452.38
2022-11-15T04:46:25.743Z,100449.72
2022-11-15T04:48:15.897Z,100447.16
2022-11-15T04:50:07.292Z,100456.84
2022-11-15T04:51:57.621Z,100455.16
2022-11-15T04:53:49.464Z,100458.50
2022-11-15T04:55:39.705Z,100451.44
2022-11-15T04:57:30.180Z,100460.97
2022-11-15T04:59:20.693Z,100451.34
2022-11-15T05:01:12.985Z,100453.97
2022-11-15T05:03:22.290Z,100452.25
2022-11-15T05:05:12.578Z,100449.81
2022-11-15T05:07:05.071Z,100448.88
2022-11-15T05:08:57.689Z,100449.63
2022-11-15T05:10:48.654Z,100453.13
2022-11-15T05:12:38.932Z,100450.59
2022-11-15T05:14:30.175Z,100456.72
2022-11-15T05:16:20.769Z,100456.72
2022-11-15T05:18:11.010Z,100462.00
2022-11-15T05:20:01.308Z,100461.03
2022-11-15T05:21:51.346Z,100448.69
2022-11-15T05:23:42.547Z,100451.34
2022-11-15T05:25:34.044Z,100451.34
2022-11-15T05:27:24.260Z,100450.41
2022-11-15T05:29:14.764Z,100448.56
2022-11-15T05:31:07.009Z,100445.00
2022-11-15T05:32:57.642Z,100443.13
2022-11-15T05:34:48.063Z,100444.06
2022-11-15T05:36:39.394Z,100442.28
2022-11-15T05:38:29.774Z,100433.59
2022-11-15T05:40:19.927Z,100439.84
2022-11-15T05:42:14.090Z,100435.44
2022-11-15T05:44:08.600Z,100433.66
2022-11-15T05:46:00.563Z,100436.28
2022-11-15T05:47:51.627Z,100439.84
2022-11-15T05:49:44.376Z,100435.44
2022-11-15T05:51:35.100Z,100446.84
2022-11-15T05:53:26.772Z,100438.00
2022-11-15T05:55:17.148Z,100438.78
2022-11-15T05:57:07.633Z,100442.28
2022-11-15T05:59:00.174Z,100436.00
2022-11-15T06:00:50.693Z,100436.94
2022-11-15T06:02:41.342Z,100439.50
2022-11-15T06:04:31.370Z,100430.59
2022-11-15T06:06:21.592Z,100449.97
2022-11-15T06:08:11.914Z,100446.47
2022-11-15T06:10:02.275Z,100444.78
2022-11-15T06:11:52.637Z,100457.97
2022-11-15T06:13:42.833Z,100449.13
2022-11-15T06:15:37.722Z,100450.06
2022-11-15T06:17:27.880Z,100456.09
2022-11-15T06:19:18.303Z,100450.84
2022-11-15T06:21:08.591Z,100450.84
2022-11-15T06:22:59.095Z,100444.69
2022-11-15T06:24:49.740Z,100457.81
2022-11-15T06:26:39.939Z,100464.81
2022-11-15T06:28:30.629Z,100464.88
2022-11-15T06:30:21.916Z,100470.94
2022-11-15T06:32:13.621Z,100471.09
2022-11-15T06:34:03.994Z,100468.50
2022-11-15T06:35:54.333Z,100466.66
2022-11-15T06:37:44.875Z,100471.00
2022-11-15T06:39:36.165Z,100467.66
2022-11-15T06:41:27.173Z,100469.50
2022-11-15T06:43:17.668Z,100475.78
2022-11-15T06:45:08.732Z,100469.59
2022-11-15T06:46:58.825Z,100467.94
2022-11-15T06:48:51.467Z,100468.72
2022-11-15T06:50:42.418Z,100470.44
2022-11-15T06:52:33.490Z,100468.81
2022-11-15T06:54:24.927Z,100481.06
2022-11-15T06:56:15.039Z,100479.34
2022-11-15T06:58:05.489Z,100480.13
2022-11-15T06:59:55.856Z,100480.06
2022-11-15T07:01:46.284Z,100483.56
2022-11-15T07:03:37.579Z,100492.31
2022-11-15T07:05:29.509Z,100489.69
2022-11-15T07:07:19.502Z,100499.38
2022-11-15T07:09:09.827Z,100502.88
2022-11-15T07:11:01.460Z,100510.78
2022-11-15T07:12:51.827Z,100508.09
2022-11-15T07:14:41.955Z,100510.78
2022-11-15T07:16:32.339Z,100518.78
2022-11-15T07:18:22.608Z,100512.66
2022-11-15T07:20:16.788Z,100519.63
2022-11-15T07:22:08.448Z,100532.09
2022-11-15T07:23:58.503Z,100525.91
2022-11-15T07:25:48.823Z,100536.47
2022-11-15T07:27:39.170Z,100538.25
2022-11-15T07:29:29.540Z,100543.44
2022-11-15T07:31:19.903Z,100543.44
2022-11-15T07:33:10.330Z,100539.97
2022-11-15T07:35:00.894Z,100555.72
2022-11-15T07:36:51.273Z,100543.44
2022-11-15T07:38:43.349Z,100554.06
2022-11-15T07:40:34.149Z,100556.72
2022-11-15T07:42:42.705Z,100558.56
2022-11-15T07:44:33.048Z,100563.75
2022-11-15T07:46:23.325Z,100560.34
2022-11-15T07:48:13.605Z,100556.09
2022-11-15T07:50:04.385Z,100555.22
2022-11-15T07:51:54.634Z,100557.94
2022-11-15T07:53:46.416Z,100553.53
2022-11-15T07:55:36.842Z,100557.09
2022-11-15T07:57:27.257Z,100557.94
2022-11-15T07:59:17.577Z,100563.16
2022-11-15T08:01:10.296Z,100555.91
2022-11-15T08:03:05.256Z,100552.88
2022-11-15T08:04:55.268Z,100549.06
2022-11-15T08:06:45.661Z,100555.06
2022-11-15T08:08:36.016Z,100555.91
2022-11-15T08:10:28.587Z,100561.91
2022-11-15T08:12:19.128Z,100563.47
2022-11-15T08:14:09.536Z,100555.31
2022-11-15T08:16:00.498Z,100556.81
2022-11-15T08:17:54.774Z,100547.88
2022-11-15T08:19:45.057Z,100547.72
2022-11-15T08:21:36.067Z,100551.91
2022-11-15T08:23:26.445Z,100551.78
2022-11-15T08:25:17.532Z,100548.13
2022-11-15T08:27:16.015Z,100553.41
2022-11-15T08:29:06.608Z,100550.69
2022-11-15T08:30:56.563Z,100542.53
2022-11-15T08:32:46.897Z,100537.72
2022-11-15T08:34:37.583Z,100537.25
2022-11-15T08:36:32.115Z,100532.47
2022-11-15T08:38:30.105Z,100534.94
2022-11-15T08:40:21.339Z,100529.31
2022-11-15T08:42:19.495Z,100534.47
2022-11-15T08:44:10.123Z,100527.38
2022-11-15T08:46:00.405Z,100527.38
2022-11-15T08:47:54.160Z,100524.03
2022-11-15T08:49:45.069Z,100519.84
2022-11-15T08:51:35.544Z,100511.19
2022-11-15T08:53:26.046Z,100516.59
2022-11-15T08:55:17.687Z,100510.00
2022-11-15T08:57:10.323Z,100506.81
2022-11-15T08:59:01.797Z,100500.22
2022-11-15T09:00:51.731Z,100516.06
2022-11-15T09:02:42.030Z,100519.72
2022-11-15T09:04:33.096Z,100509.06
2022-11-15T09:06:23.251Z,100509.75
2022-11-15T09:08:40.730Z,100508.53
2022-11-15T09:10:25.117Z,100504.13
2022-11-15T09:12:15.151Z,100507.84
2022-11-15T09:14:06.700Z,100503.56
2022-11-15T09:15:59.098Z,100499.13
2022-11-15T09:17:49.072Z,100506.81
2022-11-15T09:19:39.369Z,100511.09
2022-11-15T09:21:29.904Z,100511.97
2022-11-15T09:23:20.910Z,100496.78
2022-11-15T09:25:11.375Z,100502.78
2022-11-15T09:27:01.808Z,100511.41
2022-11-15T09:28:52.341Z,100506.97
2022-11-15T09:30:44.140Z,100504.94
2022-11-15T09:32:39.034Z,100502.22
2022-11-15T09:34:29.681Z,100501.13
2022-11-15T09:36:20.071Z,100494.13
2022-11-15T09:38:10.673Z,100485.34
2022-11-15T09:40:00.771Z,100469.56
2022-11-15T09:42:20.028Z,100476.50
2022-11-15T09:44:34.445Z,100478.13
2022-11-15T09:46:38.868Z,100473.22
2022-11-15T09:48:54.046Z,100469.84
2022-11-15T09:50:43.120Z,100463.28
2022-11-15T09:52:14.873Z,100455.97
2022-11-15T09:55:51.956Z,100458.16
2022-11-15T09:57:30.880Z,100455.34
2022-11-15T09:59:18.134Z,100447.19
2022-11-15T10:00:53.758Z,100451.44
2022-11-15T10:02:44.018Z,100444.34
2022-11-15T10:04:15.770Z,100444.34
2022-11-15T10:05:49.675Z,100435.34
2022-11-15T10:07:27.641Z,100449.31
2022-11-15T10:09:02.550Z,100433.47
2022-11-15T10:10:40.283Z,100437.75
2022-11-15T10:12:14.894Z,100435.09
2022-11-15T10:13:51.554Z,100424.59
2022-11-15T10:15:23.844Z,100423.59
2022-11-15T10:17:10.435Z,100424.38
2022-11-15T10:18:54.092Z,100417.78
2022-11-15T10:20:28.363Z,100409.00
2022-11-15T10:22:13.273Z,100410.53
2022-11-15T10:23:44.981Z,100406.59
2022-11-15T10:25:21.057Z,100405.44
2022-11-15T10:26:56.098Z,100405.44
2022-11-15T10:28:29.848Z,100407.28
2022-11-15T10:30:04.724Z,100407.38
2022-11-15T10:31:41.758Z,100402.38
2022-11-15T10:33:36.220Z,100405.50
2022-11-15T10:35:26.121Z,100408.66
2022-11-15T10:36:59.326Z,100410.53
2022-11-15T10:38:31.202Z,100405.34
2022-11-15T10:40:15.293Z,100409.00
2022-11-15T10:41:47.085Z,100395.78
2022-11-15T10:43:19.999Z,100407.72
2022-11-15T10:44:51.690Z,100403.31
2022-11-15T10:46:45.701Z,100398.88
2022-11-15T10:48:24.735Z,100388.00
2022-11-15T10:50:02.744Z,100385.28
2022-11-15T10:51:43.951Z,100376.34
2022-11-15T10:53:22.586Z,100378.56
2022-11-15T10:54:58.337Z,100369.72
2022-11-15T10:56:30.039Z,100374.88
2022-11-15T10:58:05.071Z,100374.53
2022-11-15T10:59:39.379Z,100378.03
2022-11-15T11:01:14.906Z,100375.22
2022-11-15T11:02:57.817Z,100367.00
2022-11-15T11:04:29.503Z,100369.41
2022-11-15T11:06:07.372Z,100356.94
2022-11-15T11:07:41.606Z,100352.69
2022-11-15T11:09:29.883Z,100359.94
2022-11-15T11:11:04.203Z,100360.31
2022-11-15T11:12:36.003Z,100354.06
2022-11-15T11:14:13.234Z,100356.44
2022-11-15T11:15:48.231Z,100345.53
2022-11-15T11:17:28.652Z,100354.31
2022-11-15T11:19:14.508Z,100349.78
2022-11-15T11:20:51.382Z,100347.22
2022-11-15T11:22:31.408Z,100349.19
2022-11-15T11:24:09.077Z,100352.69
2022-11-15T11:25:49.205Z,100341.75
2022-11-15T11:27:37.370Z,100349.44
2022-11-15T11:29:26.762Z,100344.97
2022-11-15T11:31:07.789Z,100343.19
2022-11-15T11:33:00.602Z,100343.31
2022-11-15T11:34:45.798Z,100336.97
2022-11-15T11:36:25.498Z,100343.94
2022-11-15T11:38:14.628Z,100338.66
2022-11-15T11:40:02.948Z,100336.69
2022-11-15T11:42:00.425Z,100345.56
2022-11-15T11:43:41.232Z,100342.00
2022-11-15T11:45:19.941Z,100341.03
2022-11-15T11:46:56.646Z,100340.09
2022-11-15T11:48:42.595Z,100338.22
2022-11-15T11:50:18.986Z,100339.16
2022-11-15T11:51:56.551Z,100338.16
2022-11-15T11:53:36.386Z,100329.19
2022-11-15T11:55:16.106Z,100330.00
2022-11-15T11:56:49.340Z,100332.56
2022-11-15T11:58:27.044Z,100323.78
2022-11-15T12:00:04.555Z,100322.81
2022-11-15T12:01:45.951Z,100311.31
2022-11-15T12:03:26.008Z,100306.78
2022-11-15T12:05:02.160Z,100300.72
2022-11-15T12:06:38.631Z,100292.59
2022-11-15T12:08:33.611Z,100287.91
2022-11-15T12:10:16.401Z,100285.81
2022-11-15T12:11:55.941Z,100277.88
2022-11-15T12:13:34.283Z,100284.03
2022-11-15T12:15:16.750Z,100277.13
2022-11-15T12:16:48.418Z,100276.38
2022-11-15T12:18:20.432Z,100266.81
2022-11-15T12:19:53.390Z,100267.75
2022-11-15T12:21:33.590Z,100267.09
2022-11-15T12:23:11.848Z,100271.72
2022-11-15T12:24:47.547Z,100264.63
2022-11-15T12:26:24.653Z,100257.63
2022-11-15T12:28:02.975Z,100265.56
2022-11-15T12:29:38.221Z,100266.31
2022-11-15T12:31:14.997Z,100267.09
2022-11-15T12:32:53.722Z,100257.19
2022-11-15T12:34:40.745Z,100255.84
2022-11-15T12:36:33.370Z,100253.97
2022-11-15T12:38:09.683Z,100245.84
2022-11-15T12:40:19.069Z,100249.78
2022-11-15T12:42:43.806Z,100242.00
2022-11-15T12:44:59.868Z,100240.50
2022-11-15T12:47:03.288Z,100232.94
2022-11-15T12:48:51.831Z,100233.47
2022-11-15T12:50:57.038Z,100222.22
2022-11-15T12:52:28.758Z,100215.03
2022-11-15T12:54:00.424Z,100214.41
2022-11-15T12:55:33.857Z,100211.44
2022-11-15T12:57:30.952Z,100212.84
2022-11-15T12:59:06.146Z,100202.59
2022-11-15T13:00:39.884Z,100201.00
2022-11-15T13:02:19.789Z,100196.22
2022-11-15T13:04:06.124Z,100191.97
2022-11-15T13:05:57.963Z,100187.44
2022-11-15T13:07:57.127Z,100190.16
2022-11-15T13:10:02.391Z,100181.94
2022-11-15T13:11:45.578Z,100177.28
2022-11-15T13:13:45.391Z,100179.09
2022-11-15T13:15:41.270Z,100178.44
2022-11-15T13:17:43.265Z,100173.53
2022-11-15T13:19:15.722Z,100171.19
2022-11-15T13:20:47.344Z,100171.47
2022-11-15T13:22:37.636Z,100163.72
2022-11-15T13:24:17.452Z,100170.44
2022-11-15T13:26:14.398Z,100174.38
2022-11-15T13:27:48.338Z,100165.28
2022-11-15T13:29:21.113Z,100155.63
2022-11-15T13:30:57.034Z,100159.03
2022-11-15T13:32:28.756Z,100149.38
2022-11-15T13:34:36.592Z,100150.53
2022-11-15T13:36:10.044Z,100149.47
2022-11-15T13:37:42.036Z,100141.63
2022-11-15T13:39:26.094Z,100138.22
2022-11-15T13:40:59.298Z,100143.66
2022-11-15T13:42:31.211Z,100132.31
2022-11-15T13:44:05.085Z,100141.94
2022-11-15T13:45:36.703Z,100135.91
2022-11-15T13:47:15.267Z,100134.59
2022-11-15T13:48:51.699Z,100135.25
2022-11-15T13:50:33.317Z,100129.94
2022-11-15T13:52:07.184Z,100120.19
2022-11-15T13:53:43.414Z,100124.25
2022-11-15T13:55:19.687Z,100118.72
2022-11-15T13:56:56.775Z,100118.53
2022-11-15T13:58:28.526Z,100111.63
2022-11-15T14:00:04.264Z,100117.78
2022-11-15T14:01:44.492Z,100108.13
2022-11-15T14:03:20.691Z,100103.41
2022-11-15T14:04:55.052Z,100100.53
2022-11-15T14:06:29.770Z,100096.94
2022-11-15T14:08:04.165Z,100086.53
2022-11-15T14:09:37.622Z,100090.34
2022-11-15T14:11:14.542Z,100088.88
2022-11-15T14:12:52.748Z,100083.56
2022-11-15T14:14:25.772Z,100088.03
2022-11-15T14:16:14.385Z,100081.88
2022-11-15T14:17:50.013Z,100083.66
2022-11-15T14:19:37.191Z,100082.72
2022-11-15T14:21:09.622Z,100082.06
2022-11-15T14:22:52.634Z,100076.13
2022-11-15T14:24:31.431Z,100067.50
2022-11-15T14:26:11.542Z,100067.50
2022-11-15T14:27:45.597Z,100065.06
2022-11-15T14:29:24.822Z,100056.41
2022-11-15T14:30:58.892Z,100058.38
2022-11-15T14:32:40.606Z,100059.44
2022-11-15T14:34:12.233Z,100054.13
2022-11-15T14:35:43.868Z,100052.53
2022-11-15T14:37:24.667Z,100050.75
2022-11-15T14:38:59.156Z,100050.75
2022-11-15T14:40:30.852Z,100046.50
2022-11-15T14:42:02.480Z,100047.56
2022-11-15T14:43:34.101Z,100049.13
2022-11-15T14:45:12.934Z,100052.63
2022-11-15T14:46:44.671Z,100046.59
2022-11-15T14:48:16.272Z,100048.19
2022-11-15T14:49:48.438Z,100047.56
2022-11-15T14:51:20.254Z,100040.84
2022-11-15T14:52:51.998Z,100030.28
2022-11-15T14:54:25.324Z,100033.78
2022-11-15T14:55:56.960Z,100042.47
2022-11-15T14:57:28.952Z,100030.94
2022-11-15T14:59:01.025Z,100030.16
2022-11-15T15:00:35.364Z,100022.31
2022-11-15T15:02:15.828Z,100022.63
2022-11-15T15:03:47.509Z,100010.31
2022-11-15T15:05:21.076Z,100017.31
2022-11-15T15:06:52.876Z,100008.44
2022-11-15T15:08:25.046Z,100012.97
2022-11-15T15:10:17.770Z,100006.81
2022-11-15T15:11:49.723Z,100007.69
2022-11-15T15:13:24.153Z,99997.84
2022-11-15T15:14:55.787Z,100000.50
2022-11-15T15:16:27.509Z,99993.69
2022-11-15T15:17:59.166Z,100001.97
2022-11-15T15:19:30.814Z,99990.63
2022-11-15T15:21:08.400Z,99992.31
2022-11-15T15:22:40.615Z,99988.81
2022-11-15T15:24:15.659Z,99987.13
2022-11-15T15:25:49.979Z,99977.47
2022-11-15T15:27:21.806Z,99984.66
2022-11-15T15:28:53.522Z,99978.44
2022-11-15T15:30:26.139Z,99979.38
2022-11-15T15:31:57.913Z,99983.72
2022-11-15T15:33:29.618Z,99981.28
2022-11-15T15:35:03.592Z,99968.97
2022-11-15T15:36:35.239Z,99972.56
2022-11-15T15:38:06.959Z,99968.97
2022-11-15T15:39:39.190Z,99973.53
2022-11-15T15:41:14.126Z,99968.47
2022-11-15T15:42:46.034Z,99974.69
2022-11-15T15:44:17.672Z,99975.06
2022-11-15T15:45:49.572Z,99965.41
2022-11-15T15:47:23.432Z,99967.97
2022-11-15T15:48:55.988Z,99962.78
2022-11-15T15:50:29.861Z,99969.00
2022-11-15T15:52:02.058Z,99969.94
2022-11-15T15:53:34.429Z,99959.59
2022-11-15T15:55:06.861Z,99957.66
2022-11-15T15:56:39.862Z,99959.38
2022-11-15T15:58:12.022Z,99958.53
2022-11-15T15:59:43.702Z,99949.63
2022-11-15T16:01:15.425Z,99949.72
2022-11-15T16:02:47.367Z,99947.09
2022-11-15T16:04:19.693Z,99951.66
2022-11-15T16:05:51.961Z,99941.06
2022-11-15T16:07:26.291Z,99945.28
2022-11-15T16:09:14.226Z,99935.56
2022-11-15T16:10:48.003Z,99938.44
2022-11-15T16:12:21.107Z,99945.59
2022-11-15T16:13:52.827Z,99935.88
2022-11-15T16:15:27.101Z,99929.72
2022-11-15T16:16:58.774Z,99934.19
2022-11-15T16:18:31.085Z,99935.78
2022-11-15T16:20:03.689Z,99928.47
2022-11-15T16:21:35.480Z,99926.13
2022-11-15T16:23:10.061Z,99929.72
2022-11-15T16:24:41.946Z,99927.28
2022-11-15T16:26:21.025Z,99930.69
2022-11-15T16:27:54.266Z,99927.09
2022-11-15T16:29:26.106Z,99927.19
2022-11-15T16:31:04.191Z,99928.97
2022-11-15T16:32:36.142Z,99924.63
2022-11-15T16:34:07.995Z,99927.38
2022-11-15T16:35:40.040Z,99924.72
2022-11-15T16:37:23.699Z,99922.19
2022-11-15T16:38:55.417Z,99923.31
2022-11-15T16:40:30.887Z,99921.53
2022-11-15T16:42:03.936Z,99915.38
2022-11-15T16:43:38.154Z,99916.56
2022-11-15T16:45:12.276Z,99919.31
2022-11-15T16:46:51.676Z,99924.69
2022-11-15T16:48:25.508Z,99917.59
2022-11-15T16:49:57.260Z,99922.56
2022-11-15T16:51:28.996Z,99912.66
2022-11-15T16:53:01.147Z,99922.84
2022-11-15T16:54:32.906Z,99912.16
2022-11-15T16:56:05.082Z,99905.81
2022-11-15T16:57:37.438Z,99913.84
2022-11-15T16:59:16.142Z,99909.63
2022-11-15T17:00:52.082Z,99909.72
2022-11-15T17:02:23.747Z,99896.69
2022-11-15T17:03:55.926Z,99903.97
2022-11-15T17:05:27.887Z,99904.91
2022-11-15T17:07:01.116Z,99906.06
2022-11-15T17:08:34.514Z,99908.72
2022-11-15T17:10:10.280Z,99908.81
2022-11-15T17:11:42.979Z,99920.16
2022-11-15T17:13:14.810Z,99904.28
2022-11-15T17:14:47.893Z,99906.94
2022-11-15T17:16:19.534Z,99919.94
2022-11-15T17:17:52.460Z,99916.66
2022-11-15T17:19:24.126Z,99909.75
2022-11-15T17:20:56.950Z,99913.25
2022-11-15T17:22:28.685Z,99908.06
2022-11-15T17:24:00.560Z,99913.56
2022-11-15T17:25:32.664Z,99908.16
2022-11-15T17:27:04.287Z,99905.31
2022-11-15T17:28:35.924Z,99909.75
2022-11-15T17:30:11.988Z,99913.44
2022-11-15T17:31:44.268Z,99905.31
2022-11-15T17:33:16.006Z,99908.81
2022-11-15T17:34:47.660Z,99912.59
2022-11-15T17:36:22.812Z,99916.09
2022-11-15T17:37:54.847Z,99908.06
2022-11-15T17:39:26.536Z,99909.19
2022-11-15T17:41:03.186Z,99899.78
2022-11-15T17:42:35.155Z,99905.91
2022-11-15T17:44:06.960Z,99907.59
2022-11-15T17:45:42.294Z,99900.50
2022-11-15T17:47:14.100Z,99909.19
2022-11-15T17:48:46.479Z,99900.31
2022-11-15T17:50:18.160Z,99910.06
2022-11-15T17:51:52.300Z,99898.53
2022-11-15T17:53:24.399Z,99895.97
2022-11-15T17:54:56.217Z,99897.88
2022-11-15T17:56:30.580Z,99904.00
2022-11-15T17:58:02.201Z,99904.00
2022-11-15T17:59:33.897Z,99896.19
2022-11-15T18:01:09.133Z,99891.72
2022-11-15T18:02:40.879Z,99897.34
2022-11-15T18:04:14.831Z,99895.75
2022-11-15T18:05:46.481Z,99887.91
2022-11-15T18:07:18.117Z,99886.09
2022-11-15T18:08:51.679Z,99884.31
2022-11-15T18:10:23.340Z,99892.34
2022-11-15T18:11:54.985Z,99892.25
2022-11-15T18:13:26.686Z,99889.03
2022-11-15T18:15:00.016Z,99888.28
2022-11-15T18:16:34.660Z,99881.31
2022-11-15T18:18:06.428Z,99876.25
2022-11-15T18:19:38.168Z,99881.81
2022-11-15T18:21:13.265Z,99881.16
2022-11-15T18:22:44.934Z,99879.66
2022-11-15T18:24:16.555Z,99873.63
2022-11-15T18:25:51.441Z,99873.06
2022-11-15T18:27:23.129Z,99870.63
2022-11-15T18:28:56.345Z,99867.97
2022-11-15T18:30:28.040Z,99865.41
2022-11-15T18:32:03.904Z,99869.22
2022-11-15T18:33:38.876Z,99869.09
2022-11-15T18:35:10.536Z,99873.44
2022-11-15T18:36:43.856Z,99869.00
2022-11-15T18:38:15.536Z,99864.66
2022-11-15T18:39:51.118Z,99866.28
2022-11-15T18:41:28.627Z,99868.91
2022-11-15T18:43:00.268Z,99860.88
2022-11-15T18:44:32.097Z,99871.56
2022-11-15T18:46:04.365Z,99857.41
2022-11-15T18:47:37.697Z,99861.75
2022-11-15T18:49:10.463Z,99848.63
2022-11-15T18:50:42.123Z,99854.00
2022-11-15T18:52:13.746Z,99846.16
2022-11-15T18:53:45.780Z,99851.59
2022-11-15T18:55:17.507Z,99844.59
2022-11-15T18:56:49.162Z,99849.22
2022-11-15T18:58:20.740Z,99851.97
2022-11-15T18:59:53.455Z,99853.75
2022-11-15T19:01:27.800Z,99849.31
2022-11-15T19:03:00.896Z,99852.91
2022-11-15T19:04:32.597Z,99845.34
2022-11-15T19:06:05.355Z,99851.72
2022-11-15T19:08:00.194Z,99853.50
2022-11-15T19:10:29.414Z,99844.25
2022-11-15T19:12:41.906Z,99847.34
2022-11-15T19:14:14.890Z,99844.81
2022-11-15T19:15:46.595Z,99842.16
2022-11-15T19:17:18.182Z,99850.94
2022-11-15T19:18:54.603Z,99840.47
2022-11-15T19:20:26.340Z,99838.00
2022-11-15T19:21:58.035Z,99832.16
2022-11-15T19:23:33.003Z,99836.50
2022-11-15T19:25:05.643Z,99835.00
2022-11-15T19:26:38.153Z,99842.19
2022-11-15T19:28:11.770Z,99828.22
2022-11-15T19:29:43.496Z,99832.66
2022-11-15T19:31:16.863Z,99832.84
2022-11-15T19:32:48.456Z,99825.84
2022-11-15T19:34:21.484Z,99830.09
2022-11-15T19:36:00.022Z,99833.69
2022-11-15T19:37:31.704Z,99832.91
2022-11-15T19:39:08.296Z,99832.06
2022-11-15T19:40:40.387Z,99827.81
2022-11-15T19:42:12.399Z,99830.47
2022-11-15T19:43:44.629Z,99827.81
2022-11-15T19:45:16.386Z,99826.25
2022-11-15T19:46:48.121Z,99826.34
2022-11-15T19:48:19.836Z,99829.16
2022-11-15T19:49:52.879Z,99826.44
2022-11-15T19:51:26.324Z,99822.00
2022-11-15T19:52:59.685Z,99820.22
2022-11-15T19:54:31.360Z,99822.00
2022-11-15T19:56:05.195Z,99824.81
2022-11-15T19:57:36.922Z,99810.97
2022-11-15T19:59:11.432Z,99821.53